nws-alerts: Checking more than four warning/county codes can delay the loading of your pages. You should use a cron job to get the data.

Nearby METAR Weather Reports

 

KETB - West Bend, WI
Distance from station: E 4mi, 6km
Updated: 12/09/2019 9:55am
Light rain, Overcast
Light rain, Overcast
 Wind from calm
Wind: Calm
Temperature: 36°F , 2°C
Dew Point: 36°F , 2°C
Humidity: 100%
Barometer: 29.48 inHg , 998.3 hPa
Summary: Light rain
Clouds: Overcast
Visibility: 3/4 mile , 1.2 km
Cloud details: Overcast 200 ft
2019/12/09 15:55 KETB 091555Z AUTO 00000KT 3/4SM -RA OVC002 02/02 A2948 RMK AO2
KFLD - Fond Du Lac, WI
Distance from station: W 34mi, 54km
Updated: 12/09/2019 9:53am
Mist, Overcast
Mist, Overcast
 Wind from NNE
Wind: NNE 6 mph , 9 km/h
Temperature: 36°F , 2°C
Wind Chill: 31°F , -1°C
Dew Point: 34°F , 1°C
Humidity: 93%
Barometer: 29.49 inHg , 998.6 hPa
Summary: Mist
Clouds: Overcast
Visibility: 1 1/4 miles , 2 km
Cloud details: Overcast 200 ft
2019/12/09 15:53 KFLD 091553Z AUTO 02005KT 1 1/4SM BR OVC002 02/01 A2949 RMK AO2 UPE03SNB03E13 SLP995 P0000 T00170006
 
KSBM - Sheboygan, WI
Distance from station: NE 36mi, 57km
Updated: 12/09/2019 9:53am
Mist, Overcast
Mist, Overcast
 Wind from N
Wind: N 7 mph , 11 km/h
Temperature: 36°F , 2°C
Wind Chill: 30°F , -1°C
Dew Point: 36°F , 2°C
Humidity: 100%
Barometer: 29.48 inHg , 998.3 hPa
Summary: Mist
Clouds: Overcast
Visibility: 1 mile , 2 km
Cloud details: Overcast 300 ft
2019/12/09 15:53 KSBM 091553Z AUTO 35006KT 1SM BR OVC003 02/02 A2948 RMK AO2 SLP990 T00220017
KMKE - Milwaukee, WI
Distance from station: S 44mi, 70km
Updated: 12/09/2019 9:59am
Light rain, Mist, Overcast
Light rain, Mist, Overcast
 Wind from WSW
Wind: WSW 7 mph , 11 km/h
Temperature: 43°F , 6°C
Wind Chill: 39°F , 4°C
Dew Point: 41°F , 5°C
Humidity: 93%
Barometer: 29.49 inHg , 998.6 hPa
Summary: Light rain, Mist
Clouds: Overcast
Visibility: 1 mile , 2 km
Cloud details: Overcast 200 ft
2019/12/09 15:59 KMKE 091559Z 25006KT 1SM R01L/P6000FT -RA BR OVC002 06/05 A2949 RMK AO2 SFC VIS 2 P0000 T00610050
 
KOSH - Oshkosh, WI
Distance from station: WNW 52mi, 83km
Updated: 12/09/2019 9:53am
Mist, Overcast
Mist, Overcast
 Wind from NE
Wind: NE 8 mph , 13 km/h
Temperature: 34°F , 1°C
Wind Chill: 27°F , -3°C
Dew Point: 34°F , 1°C
Humidity: 100%
Barometer: 29.49 inHg , 998.6 hPa
Summary: Mist
Clouds: Overcast
Visibility: 1 1/4 miles , 2 km
Cloud details: Overcast 300 ft
2019/12/09 15:53 KOSH 091553Z 04007KT 1 1/4SM R36/6000VP6000FT BR OVC003 01/01 A2949 RMK AO2 SLP998 T00110006
KENW - Kenosha, WI
Distance from station: SSE 69mi, 111km
Updated: 12/09/2019 9:53am
Mist, Overcast
Mist, Overcast
 Wind from WSW
Wind: WSW 9 mph , 15 km/h
Temperature: 46°F , 8°C
Wind Chill: 41°F , 5°C
Dew Point: 45°F , 7°C
Humidity: 93%
Barometer: 29.49 inHg , 998.6 hPa
Summary: Mist
Clouds: Overcast
Visibility: 2 miles , 3 km
Cloud details: Overcast 400 ft
2019/12/09 15:53 KENW 091553Z 24008KT 2SM BR OVC004 08/07 A2949 RMK AO2 SLP990 T00780072
 
KMSN - Madison, WI
Distance from station: SW 69mi, 111km
Updated: 12/09/2019 9:53am
Mist, Overcast
Mist, Overcast
 Wind from calm
Wind: Calm
Temperature: 37°F , 3°C
Dew Point: 37°F , 3°C
Humidity: 100%
Barometer: 29.48 inHg , 998.3 hPa
Summary: Mist
Clouds: Overcast
Visibility: 1/2 mile , 0.8 km
Cloud details: Overcast 200 ft
2019/12/09 15:53 KMSN 091553Z 00000KT 1/2SM R36/P6000FT BR OVC002 03/03 A2948 RMK AO2 SFC VIS 1 1/4 DZE36 SLP990 P0000 T00330028
KSAW - Marquette, MI
Distance from station: N 262mi, 421km
Updated: 12/09/2019 9:47am
Mist, Overcast
Mist, Overcast
 Wind from NE
Wind: NE 14 mph , 22 km/h, Gust: 18 mph , 30 km/h
Temperature: 27°F , -3°C
Wind Chill: 16°F , -9°C
Dew Point: 25°F , -4°C
Humidity: 93%
Barometer: 29.54 inHg , 1000.3 hPa
Summary: Mist
Clouds: Overcast
Visibility: 1 mile , 2 km
Cloud details: Overcast 400 ft
2019/12/09 15:47 KSAW 091547Z 04012G16KT 1SM BR OVC004 M03/M04 A2954
 
KIMT - Iron Mountain, MI
Distance from station: NNW 201mi, 323km
Updated: 12/09/2019 9:54am
Mist, Overcast
Mist, Overcast
 Wind from NE
Wind: NE 6 mph , 9 km/h
Temperature: 28°F , -2°C
Wind Chill: 21°F , -6°C
Dew Point: 25°F , -4°C
Humidity: 86%
Barometer: 29.52 inHg , 999.7 hPa
Summary: Mist
Clouds: Overcast
Visibility: 2 miles , 3 km
Cloud details: Overcast 700 ft
2019/12/09 15:54 KIMT 091554Z AUTO 04005KT 2SM BR OVC007 M02/M04 A2952 RMK AO2 SLP010 T10221044
KGRB - Green Bay, WI
Distance from station: NNW 87mi, 140km
Updated: 12/09/2019 9:53am
Overcast
Overcast
 Wind from NNE
Wind: NNE 9 mph , 15 km/h
Temperature: 34°F , 1°C
Wind Chill: 27°F , -3°C
Dew Point: 30°F , -1°C
Humidity: 87%
Barometer: 29.50 inHg , 999 hPa
Clouds: Overcast
Visibility: 7 miles , 11 km
Cloud details: Overcast 400 ft
2019/12/09 15:53 KGRB 091553Z 02008KT 7SM OVC004 01/M01 A2950 RMK AO2 SLP999 T00061006
 
KAUW - Wausau, WI
Distance from station: NW 155mi, 249km
Updated: 12/09/2019 9:54am
Overcast
Overcast
 Wind from E
Wind: E 12 mph , 19 km/h
Temperature: 30°F , -1°C
Wind Chill: 20°F , -7°C
Dew Point: 28°F , -2°C
Humidity: 93%
Barometer: 29.46 inHg , 997.6 hPa
Clouds: Overcast
Visibility: 8 miles , 13 km
Cloud details: Overcast 600 ft
2019/12/09 15:54 KAUW 091554Z AUTO 10010KT 8SM OVC006 M01/M02 A2946 RMK AO2 SLP993 T10111017
KORD - Chicago O'Hare, IL
Distance from station: S 113mi, 181km
Updated: 12/09/2019 9:51am
Light drizzle, Mist, Overcast
Light drizzle, Mist, Overcast
 Wind from SW
Wind: SW 10 mph , 17 km/h
Temperature: 46°F , 8°C
Wind Chill: 41°F , 5°C
Dew Point: 45°F , 7°C
Humidity: 93%
Barometer: 29.51 inHg , 999.3 hPa
Summary: Light drizzle, Mist
Clouds: Overcast
Visibility: 4 miles , 6 km
Cloud details: Overcast 600 ft
2019/12/09 15:51 KORD 091551Z 23009KT 4SM -DZ BR OVC006 08/07 A2951 RMK AO2 SLP996 P0000 T00780067
 
KVOK - WIANG Volk Field, Camp Douglas, WI
Distance from station: WNW 120mi, 193km
Updated: 12/09/2019 8:56am
Light freezing, Drizzle, Mist, Overcast
Light freezing, Drizzle, Mist, Overcast
 Wind from calm
Wind: Calm
Temperature: 32°F , 0°C
Dew Point: 32°F , 0°C
Humidity: 100%
Barometer: 29.49 inHg , 998.6 hPa
Summary: Light freezing, Drizzle, Mist
Clouds: Overcast
Visibility: 7/8 mile , 1.4 km
Cloud details: Overcast 200 ft
2019/12/09 14:56 KVOK 091456Z 00000KT 7/8SM R27/4500V5000FT -FZDZ BR VV002 00/00 A2949 RMK AO2A SLP000 57022
KLNR - Lone Rock, WI
Distance from station: W 114mi, 183km
Updated: 12/09/2019 9:56am
Fog, Overcast
Fog, Overcast
 Wind from calm
Wind: Calm
Temperature: 36°F , 2°C
Dew Point: 34°F , 1°C
Humidity: 93%
Barometer: 29.49 inHg , 998.6 hPa
Summary: Fog
Clouds: Overcast
Visibility: 1/2 mile , 0.8 km
Cloud details: Overcast 300 ft
2019/12/09 15:56 KLNR 091556Z AUTO 00000KT 1/2SM FG OVC003 02/01 A2949 RMK AO2 SLP989 T00170011